createdAt,value
2023-04-13T00:01:59.595Z,99925.69
2023-04-13T00:07:05.059Z,99938.53
2023-04-13T00:12:07.419Z,99931.88
2023-04-13T00:17:10.151Z,99918.34
2023-04-13T00:22:12.872Z,99915.38
2023-04-13T00:27:15.048Z,99886.41
2023-04-13T00:32:17.497Z,99890.16
2023-04-13T00:37:20.465Z,99903.78
2023-04-13T00:42:22.803Z,99931.06
2023-04-13T00:47:29.090Z,99919.94
2023-04-13T00:52:31.363Z,99914.03
2023-04-13T00:57:34.532Z,99947.94
2023-04-13T01:02:37.970Z,99916.72
2023-04-13T01:07:51.865Z,99945.06
2023-04-13T01:12:57.318Z,99939.22
2023-04-13T01:18:07.624Z,99932.22
2023-04-13T01:23:12.944Z,99940.50
2023-04-13T01:28:19.813Z,99964.88
2023-04-13T01:33:22.833Z,99912.13
2023-04-13T01:38:25.668Z,99937.78
2023-04-13T01:43:28.443Z,99935.94
2023-04-13T01:48:37.867Z,99926.25
2023-04-13T01:54:02.401Z,99962.84
2023-04-13T01:59:05.446Z,99936.59
2023-04-13T02:04:08.163Z,99927.63
2023-04-13T02:09:11.435Z,99948.13
2023-04-13T02:14:13.892Z,99946.88
2023-04-13T02:19:16.068Z,99962.22
2023-04-13T02:24:18.312Z,99926.44
2023-04-13T02:29:20.477Z,99938.84
2023-04-13T02:34:23.365Z,99956.63
2023-04-13T02:39:25.591Z,99973.38
2023-04-13T02:44:27.713Z,99957.41
2023-04-13T02:49:29.952Z,99966.69
2023-04-13T02:54:32.137Z,99941.22
2023-04-13T02:59:34.311Z,99986.09
2023-04-13T03:04:36.538Z,99981.94
2023-04-13T03:09:39.990Z,99993.09
2023-04-13T03:14:42.104Z,100006.78
2023-04-13T03:19:48.095Z,99978.25
2023-04-13T03:24:51.018Z,99989.47
2023-04-13T03:29:53.190Z,99971.88
2023-04-13T03:34:56.021Z,99996.47
2023-04-13T03:39:59.147Z,99993.97
2023-04-13T03:45:01.240Z,99978.47
2023-04-13T03:50:04.149Z,99996.06
2023-04-13T03:55:07.102Z,100017.34
2023-04-13T04:00:14.358Z,100003.00
2023-04-13T04:05:17.534Z,99992.25
2023-04-13T04:10:20.046Z,99976.84
2023-04-13T04:15:22.623Z,100058.19
2023-04-13T04:20:25.023Z,100009.00
2023-04-13T04:25:27.885Z,100058.78
2023-04-13T04:30:30.687Z,100074.34
2023-04-13T04:35:35.928Z,100073.75
2023-04-13T04:40:38.377Z,100040.88
2023-04-13T04:51:09.384Z,100074.44
2023-04-13T04:56:11.468Z,100073.34
2023-04-13T05:01:13.755Z,100084.56
2023-04-13T05:06:16.153Z,100075.91
2023-04-13T05:11:18.384Z,100077.22
2023-04-13T05:16:20.556Z,100066.47
2023-04-13T05:21:23.317Z,100088.09
2023-04-13T05:26:25.820Z,100089.16
2023-04-13T05:31:29.090Z,100083.75
2023-04-13T05:36:32.570Z,100070.84
2023-04-13T05:41:34.764Z,100080.66
2023-04-13T05:46:37.028Z,100097.47
2023-04-13T05:51:39.637Z,100105.75
2023-04-13T05:56:41.837Z,100123.78
2023-04-13T06:01:43.983Z,100118.16
2023-04-13T06:06:46.796Z,100085.69
2023-04-13T06:11:48.873Z,100103.59
2023-04-13T06:16:52.925Z,100099.22
2023-04-13T06:21:55.161Z,100089.69
2023-04-13T06:26:58.610Z,100116.94
2023-04-13T06:32:00.834Z,100114.72
2023-04-13T06:37:06.345Z,100112.69
2023-04-13T06:42:08.473Z,100119.25
2023-04-13T06:47:10.762Z,100108.25
2023-04-13T06:52:13.062Z,100112.53
2023-04-13T06:57:15.125Z,100117.31
2023-04-13T07:02:17.857Z,100107.19
2023-04-13T07:07:20.593Z,100101.94
2023-04-13T07:12:22.721Z,100108.16
2023-04-13T07:17:25.204Z,100108.19
2023-04-13T07:22:32.758Z,100131.22
2023-04-13T07:27:34.981Z,100094.66
2023-04-13T07:32:37.386Z,100122.16
2023-04-13T07:37:39.868Z,100155.44
2023-04-13T07:42:42.386Z,100148.28
2023-04-13T07:47:44.545Z,100153.94
2023-04-13T07:52:46.760Z,100126.03
2023-04-13T07:57:49.168Z,100129.03
2023-04-13T08:02:51.983Z,100121.13
2023-04-13T08:07:54.361Z,100130.44
2023-04-13T08:12:56.863Z,100109.38
2023-04-13T08:18:00.117Z,100105.50
2023-04-13T08:23:02.375Z,100121.78
2023-04-13T08:28:05.469Z,100103.84
2023-04-13T08:33:08.100Z,100100.16
2023-04-13T08:38:10.572Z,100087.91
2023-04-13T08:43:13.689Z,100080.19
2023-04-13T08:48:19.660Z,100071.13
2023-04-13T08:53:22.061Z,100052.91
2023-04-13T08:58:26.202Z,100067.53
2023-04-13T09:03:34.253Z,100081.59
2023-04-13T09:08:37.040Z,100098.56
2023-04-13T09:13:39.245Z,100082.34
2023-04-13T09:18:54.397Z,100082.13
2023-04-13T09:23:59.403Z,100098.88
2023-04-13T09:29:03.565Z,100076.56
2023-04-13T09:34:06.655Z,100060.91
2023-04-13T09:39:08.845Z,100056.59
2023-04-13T09:44:18.240Z,100064.13
2023-04-13T09:49:20.615Z,100069.28
2023-04-13T09:54:23.231Z,100068.28
2023-04-13T09:59:30.161Z,100033.38
2023-04-13T10:04:35.072Z,100022.28
2023-04-13T10:09:37.412Z,100006.53
2023-04-13T10:14:43.956Z,100022.59
2023-04-13T10:19:51.746Z,100006.34
2023-04-13T10:24:53.902Z,99985.06
2023-04-13T10:29:56.566Z,99990.09
2023-04-13T10:35:16.604Z,99978.09
2023-04-13T10:40:18.840Z,99984.94
2023-04-13T10:45:26.676Z,99978.34
2023-04-13T10:50:29.014Z,99980.50
2023-04-13T10:55:35.639Z,99986.28
2023-04-13T11:00:46.131Z,99973.53
2023-04-13T11:06:00.303Z,99974.66
2023-04-13T11:11:02.502Z,99965.34
2023-04-13T11:16:06.059Z,99982.03
2023-04-13T11:21:18.188Z,99968.88
2023-04-13T11:26:32.031Z,99961.75
2023-04-13T11:31:42.435Z,99951.28
2023-04-13T11:36:49.244Z,99961.06
2023-04-13T11:41:52.036Z,99951.13
2023-04-13T11:46:54.404Z,99931.41
2023-04-13T11:51:57.140Z,99929.75
2023-04-13T11:56:59.310Z,99925.81
2023-04-13T12:02:05.330Z,99929.84
2023-04-13T12:07:14.126Z,99916.38
2023-04-13T12:12:50.783Z,99904.75
2023-04-13T12:17:48.646Z,99905.81
2023-04-13T12:23:00.171Z,99902.19
2023-04-13T12:28:05.256Z,99893.47
2023-04-13T12:33:07.569Z,99871.44
2023-04-13T12:38:09.801Z,99878.19
2023-04-13T12:43:11.949Z,99864.63
2023-04-13T12:48:14.130Z,99854.53
2023-04-13T12:53:16.628Z,99861.84
2023-04-13T12:58:18.964Z,99859.88
2023-04-13T13:03:21.788Z,99818.16
2023-04-13T13:08:24.052Z,99853.78
2023-04-13T13:13:26.108Z,99860.88
2023-04-13T13:18:38.418Z,99827.38
2023-04-13T13:23:49.218Z,99834.09
2023-04-13T13:28:52.406Z,99834.19
2023-04-13T13:33:57.588Z,99825.53
2023-04-13T13:39:00.438Z,99826.72
2023-04-13T13:44:02.774Z,99820.34
2023-04-13T13:49:05.657Z,99828.63
2023-04-13T13:54:07.958Z,99801.75
2023-04-13T13:59:10.113Z,99824.03
2023-04-13T14:04:13.289Z,99817.50
2023-04-13T14:09:15.483Z,99775.00
2023-04-13T14:14:21.984Z,99816.84
2023-04-13T14:19:25.039Z,99797.66
2023-04-13T14:24:27.552Z,99787.78
2023-04-13T14:29:29.862Z,99810.00
2023-04-13T14:34:32.008Z,99801.94
2023-04-13T14:39:34.541Z,99744.81
2023-04-13T14:44:37.070Z,99726.38
2023-04-13T14:49:39.348Z,99795.91
2023-04-13T14:54:42.153Z,99793.06
2023-04-13T14:59:45.264Z,99766.44
2023-04-13T15:04:48.518Z,99782.09
2023-04-13T15:09:50.805Z,99795.53
2023-04-13T15:14:53.128Z,99759.38
2023-04-13T15:19:55.503Z,99790.16
2023-04-13T15:24:57.646Z,99783.78
2023-04-13T15:30:00.642Z,99753.31
2023-04-13T15:35:03.248Z,99797.66
2023-04-13T15:40:08.028Z,99778.38
2023-04-13T15:45:10.763Z,99766.75
2023-04-13T15:50:13.777Z,99744.53
2023-04-13T15:55:15.996Z,99762.50
2023-04-13T16:00:18.698Z,99728.25
2023-04-13T16:05:21.471Z,99758.78
2023-04-13T16:10:23.749Z,99720.16
2023-04-13T16:15:26.630Z,99760.22
2023-04-13T16:20:29.057Z,99707.97
2023-04-13T16:25:31.897Z,99734.16
2023-04-13T16:30:34.190Z,99775.66
2023-04-13T16:35:37.087Z,99770.75
2023-04-13T16:40:39.547Z,99795.38
2023-04-13T16:45:42.547Z,99763.00
2023-04-13T16:50:44.759Z,99779.19
2023-04-13T16:55:51.216Z,99715.88
2023-04-13T17:00:54.055Z,99727.81
2023-04-13T17:05:56.719Z,99752.03
2023-04-13T17:10:59.516Z,99813.69
2023-04-13T17:16:02.069Z,99805.72
2023-04-13T17:21:04.717Z,99794.88
2023-04-13T17:26:07.082Z,99836.03
2023-04-13T17:31:09.530Z,99734.59
2023-04-13T17:36:11.977Z,99751.06
2023-04-13T17:41:14.317Z,99708.16
2023-04-13T17:46:16.605Z,99747.69
2023-04-13T17:51:18.978Z,99816.13
2023-04-13T17:56:21.168Z,99818.34
2023-04-13T18:01:26.046Z,99787.50
2023-04-13T18:06:28.592Z,99825.94
2023-04-13T18:11:31.075Z,99814.75
2023-04-13T18:16:33.499Z,99742.19
2023-04-13T18:21:37.399Z,99795.34
2023-04-13T18:26:40.053Z,99805.34
2023-04-13T18:31:42.528Z,99861.81
2023-04-13T18:36:45.005Z,99892.91
2023-04-13T18:41:47.694Z,99846.03
2023-04-13T18:46:49.909Z,99915.63
2023-04-13T18:51:52.180Z,99881.16
2023-04-13T18:56:54.678Z,99824.59
2023-04-13T19:01:57.110Z,99815.22
2023-04-13T19:06:59.333Z,99823.91
2023-04-13T19:12:03.134Z,99910.47
2023-04-13T19:17:06.043Z,99880.25
2023-04-13T19:22:08.291Z,99804.25
2023-04-13T19:27:10.702Z,99898.94
2023-04-13T19:32:13.298Z,99897.22
2023-04-13T19:37:16.820Z,99877.59
2023-04-13T19:42:19.136Z,99857.47
2023-04-13T19:47:21.544Z,99904.50
2023-04-13T19:52:23.851Z,99817.00
2023-04-13T19:57:26.292Z,99794.78
2023-04-13T20:02:28.993Z,99947.22
2023-04-13T20:07:31.405Z,99829.13
2023-04-13T20:12:34.238Z,99916.78
2023-04-13T20:17:36.639Z,99925.28
2023-04-13T20:22:39.329Z,99939.66
2023-04-13T20:27:42.354Z,99869.78
2023-04-13T20:32:44.953Z,99797.78
2023-04-13T20:37:47.385Z,99938.44
2023-04-13T20:42:49.660Z,99952.19
2023-04-13T20:47:57.371Z,99947.25
2023-04-13T20:53:00.122Z,99846.81
2023-04-13T20:58:02.719Z,99881.22
2023-04-13T21:03:05.482Z,99914.97
2023-04-13T21:08:08.075Z,99957.63
2023-04-13T21:13:11.224Z,99910.47
2023-04-13T21:18:13.399Z,99890.19
2023-04-13T21:23:16.857Z,99848.06
2023-04-13T21:28:19.120Z,99940.25
2023-04-13T21:33:21.770Z,99924.63
2023-04-13T21:38:24.023Z,99901.13
2023-04-13T21:43:26.573Z,99963.53
2023-04-13T21:48:28.809Z,99946.13
2023-04-13T21:53:31.270Z,99841.16
2023-04-13T21:58:41.732Z,99899.47
2023-04-13T22:03:47.286Z,99844.41
2023-04-13T22:08:49.821Z,99891.94
2023-04-13T22:13:52.099Z,99896.88
2023-04-13T22:18:54.303Z,99959.78
2023-04-13T22:23:56.654Z,99824.56
2023-04-13T22:28:59.337Z,99836.06
2023-04-13T22:34:02.067Z,99880.78
2023-04-13T22:39:04.380Z,99915.09
2023-04-13T22:44:06.716Z,99878.16
2023-04-13T22:49:10.344Z,99796.25
2023-04-13T22:54:12.680Z,99887.13
2023-04-13T22:59:16.794Z,99832.44
2023-04-13T23:04:19.294Z,99792.94
2023-04-13T23:09:21.643Z,99889.97
2023-04-13T23:14:24.101Z,99856.53
2023-04-13T23:19:26.585Z,99883.38
2023-04-13T23:24:29.061Z,99914.16
2023-04-13T23:29:31.515Z,99846.53
2023-04-13T23:34:33.729Z,99797.19
2023-04-13T23:39:35.976Z,99856.41
2023-04-13T23:44:38.188Z,99872.63
2023-04-13T23:49:40.511Z,99890.13
2023-04-13T23:54:42.685Z,99819.34
2023-04-13T23:59:45.138Z,99847.34
